sensor_id;sensor_type;location;lat;lon;timestamp;P1;durP1;ratioP1;P2;durP2;ratioP2
44430;SDS011;30135;47.866;-4.222;2022-12-07T00:01:48;29.88;;;11.75;;
44430;SDS011;30135;47.866;-4.222;2022-12-07T00:04:15;22.02;;;10.48;;
44430;SDS011;30135;47.866;-4.222;2022-12-07T00:06:43;24.77;;;10.65;;
44430;SDS011;30135;47.866;-4.222;2022-12-07T00:09:13;21.83;;;9.85;;
44430;SDS011;30135;47.866;-4.222;2022-12-07T00:11:44;27.95;;;11.27;;
44430;SDS011;30135;47.866;-4.222;2022-12-07T00:14:17;37.45;;;11.32;;
44430;SDS011;30135;47.866;-4.222;2022-12-07T00:16:43;27.52;;;11.10;;
44430;SDS011;30135;47.866;-4.222;2022-12-07T00:19:10;25.92;;;9.63;;
44430;SDS011;30135;47.866;-4.222;2022-12-07T00:21:38;22.20;;;9.63;;
44430;SDS011;30135;47.866;-4.222;2022-12-07T00:24:05;23.30;;;10.35;;
44430;SDS011;30135;47.866;-4.222;2022-12-07T00:26:34;21.95;;;9.05;;
44430;SDS011;30135;47.866;-4.222;2022-12-07T00:29:06;25.70;;;10.73;;
44430;SDS011;30135;47.866;-4.222;2022-12-07T00:31:38;26.33;;;9.35;;
44430;SDS011;30135;47.866;-4.222;2022-12-07T00:34:05;26.30;;;9.52;;
44430;SDS011;30135;47.866;-4.222;2022-12-07T00:36:42;19.92;;;9.10;;
44430;SDS011;30135;47.866;-4.222;2022-12-07T00:39:14;20.95;;;9.15;;
44430;SDS011;30135;47.866;-4.222;2022-12-07T00:41:40;24.13;;;10.32;;
44430;SDS011;30135;47.866;-4.222;2022-12-07T00:44:06;20.50;;;8.75;;
44430;SDS011;30135;47.866;-4.222;2022-12-07T00:46:32;20.17;;;9.32;;
44430;SDS011;30135;47.866;-4.222;2022-12-07T00:48:58;29.38;;;10.18;;
44430;SDS011;30135;47.866;-4.222;2022-12-07T00:51:25;22.20;;;9.55;;
44430;SDS011;30135;47.866;-4.222;2022-12-07T00:53:51;21.08;;;9.05;;
44430;SDS011;30135;47.866;-4.222;2022-12-07T00:56:19;21.60;;;8.95;;
44430;SDS011;30135;47.866;-4.222;2022-12-07T00:58:55;21.77;;;9.57;;
44430;SDS011;30135;47.866;-4.222;2022-12-07T01:01:28;24.50;;;10.07;;
44430;SDS011;30135;47.866;-4.222;2022-12-07T01:03:57;25.42;;;11.07;;
44430;SDS011;30135;47.866;-4.222;2022-12-07T01:06:26;27.85;;;9.90;;
44430;SDS011;30135;47.866;-4.222;2022-12-07T01:08:53;19.73;;;10.15;;
44430;SDS011;30135;47.866;-4.222;2022-12-07T01:11:21;25.20;;;11.07;;
44430;SDS011;30135;47.866;-4.222;2022-12-07T01:13:53;24.63;;;8.02;;
44430;SDS011;30135;47.866;-4.222;2022-12-07T01:16:22;28.40;;;11.27;;
44430;SDS011;30135;47.866;-4.222;2022-12-07T01:18:50;23.27;;;8.75;;
44430;SDS011;30135;47.866;-4.222;2022-12-07T01:21:23;28.95;;;9.65;;
44430;SDS011;30135;47.866;-4.222;2022-12-07T01:24:01;22.08;;;9.27;;
44430;SDS011;30135;47.866;-4.222;2022-12-07T01:26:29;26.63;;;10.00;;
44430;SDS011;30135;47.866;-4.222;2022-12-07T01:28:55;22.98;;;10.25;;
44430;SDS011;30135;47.866;-4.222;2022-12-07T01:31:22;22.92;;;9.70;;
44430;SDS011;30135;47.866;-4.222;2022-12-07T01:33:51;19.63;;;8.02;;
44430;SDS011;30135;47.866;-4.222;2022-12-07T01:38:54;22.77;;;8.52;;
44430;SDS011;30135;47.866;-4.222;2022-12-07T01:41:29;22.83;;;9.45;;
44430;SDS011;30135;47.866;-4.222;2022-12-07T01:44:13;26.08;;;10.80;;
44430;SDS011;30135;47.866;-4.222;2022-12-07T01:46:58;18.48;;;8.48;;
44430;SDS011;30135;47.866;-4.222;2022-12-07T01:49:31;27.75;;;9.38;;
44430;SDS011;30135;47.866;-4.222;2022-12-07T01:55:07;24.70;;;10.00;;
44430;SDS011;30135;47.866;-4.222;2022-12-07T01:57:39;22.80;;;9.18;;
44430;SDS011;30135;47.866;-4.222;2022-12-07T02:00:09;23.63;;;9.75;;
44430;SDS011;30135;47.866;-4.222;2022-12-07T02:02:44;23.00;;;9.25;;
44430;SDS011;30135;47.866;-4.222;2022-12-07T02:05:38;25.40;;;9.50;;
44430;SDS011;30135;47.866;-4.222;2022-12-07T02:08:17;17.98;;;9.02;;
44430;SDS011;30135;47.866;-4.222;2022-12-07T02:10:43;23.88;;;10.32;;
44430;SDS011;30135;47.866;-4.222;2022-12-07T02:13:11;21.88;;;9.85;;
44430;SDS011;30135;47.866;-4.222;2022-12-07T02:15:50;22.02;;;8.75;;
44430;SDS011;30135;47.866;-4.222;2022-12-07T02:24:19;22.65;;;9.82;;
44430;SDS011;30135;47.866;-4.222;2022-12-07T02:27:11;25.17;;;9.15;;
44430;SDS011;30135;47.866;-4.222;2022-12-07T02:30:06;20.45;;;9.27;;
44430;SDS011;30135;47.866;-4.222;2022-12-07T02:35:41;23.63;;;9.43;;
44430;SDS011;30135;47.866;-4.222;2022-12-07T02:38:26;25.23;;;9.85;;
44430;SDS011;30135;47.866;-4.222;2022-12-07T02:43:42;21.98;;;10.65;;
44430;SDS011;30135;47.866;-4.222;2022-12-07T02:46:20;26.48;;;10.35;;
44430;SDS011;30135;47.866;-4.222;2022-12-07T02:48:53;23.95;;;9.88;;
44430;SDS011;30135;47.866;-4.222;2022-12-07T02:51:21;24.10;;;10.25;;
44430;SDS011;30135;47.866;-4.222;2022-12-07T02:53:47;23.15;;;9.63;;
44430;SDS011;30135;47.866;-4.222;2022-12-07T02:58:57;23.10;;;10.07;;
44430;SDS011;30135;47.866;-4.222;2022-12-07T03:07:43;23.20;;;9.48;;
44430;SDS011;30135;47.866;-4.222;2022-12-07T03:18:44;18.10;;;8.77;;
44430;SDS011;30135;47.866;-4.222;2022-12-07T03:21:32;20.10;;;9.35;;
44430;SDS011;30135;47.866;-4.222;2022-12-07T03:24:07;22.25;;;8.45;;
44430;SDS011;30135;47.866;-4.222;2022-12-07T03:26:41;25.98;;;10.00;;
44430;SDS011;30135;47.866;-4.222;2022-12-07T03:29:23;23.63;;;8.95;;
44430;SDS011;30135;47.866;-4.222;2022-12-07T03:31:59;22.45;;;8.63;;
44430;SDS011;30135;47.866;-4.222;2022-12-07T03:42:58;22.42;;;9.77;;
44430;SDS011;30135;47.866;-4.222;2022-12-07T03:50:48;22.98;;;8.98;;
44430;SDS011;30135;47.866;-4.222;2022-12-07T03:53:38;22.55;;;8.30;;
44430;SDS011;30135;47.866;-4.222;2022-12-07T03:56:11;23.70;;;9.82;;
44430;SDS011;30135;47.866;-4.222;2022-12-07T03:58:39;21.60;;;10.27;;
44430;SDS011;30135;47.866;-4.222;2022-12-07T04:01:06;26.80;;;10.55;;
44430;SDS011;30135;47.866;-4.222;2022-12-07T04:03:32;22.27;;;9.52;;
44430;SDS011;30135;47.866;-4.222;2022-12-07T04:06:03;20.95;;;8.77;;
44430;SDS011;30135;47.866;-4.222;2022-12-07T04:08:30;25.55;;;9.27;;
44430;SDS011;30135;47.866;-4.222;2022-12-07T04:10:56;20.17;;;9.32;;
44430;SDS011;30135;47.866;-4.222;2022-12-07T04:13:22;17.95;;;8.88;;
44430;SDS011;30135;47.866;-4.222;2022-12-07T04:15:48;20.67;;;8.98;;
44430;SDS011;30135;47.866;-4.222;2022-12-07T04:18:14;21.88;;;9.27;;
44430;SDS011;30135;47.866;-4.222;2022-12-07T04:20:40;18.92;;;8.13;;
44430;SDS011;30135;47.866;-4.222;2022-12-07T04:23:06;20.85;;;8.50;;
44430;SDS011;30135;47.866;-4.222;2022-12-07T04:25:32;20.67;;;8.50;;
44430;SDS011;30135;47.866;-4.222;2022-12-07T04:27:58;19.42;;;7.75;;
44430;SDS011;30135;47.866;-4.222;2022-12-07T04:30:24;25.88;;;8.85;;
44430;SDS011;30135;47.866;-4.222;2022-12-07T04:32:50;20.33;;;9.55;;
44430;SDS011;30135;47.866;-4.222;2022-12-07T04:35:16;20.50;;;8.20;;
44430;SDS011;30135;47.866;-4.222;2022-12-07T04:37:42;18.58;;;7.80;;
44430;SDS011;30135;47.866;-4.222;2022-12-07T04:40:08;17.92;;;8.10;;
44430;SDS011;30135;47.866;-4.222;2022-12-07T04:42:36;20.00;;;10.02;;
44430;SDS011;30135;47.866;-4.222;2022-12-07T04:45:06;15.70;;;8.57;;
44430;SDS011;30135;47.866;-4.222;2022-12-07T04:47:33;26.25;;;9.85;;
44430;SDS011;30135;47.866;-4.222;2022-12-07T04:49:59;23.38;;;9.40;;
44430;SDS011;30135;47.866;-4.222;2022-12-07T04:52:25;17.08;;;7.45;;
44430;SDS011;30135;47.866;-4.222;2022-12-07T04:54:51;16.67;;;7.35;;
44430;SDS011;30135;47.866;-4.222;2022-12-07T04:57:17;19.63;;;8.32;;
44430;SDS011;30135;47.866;-4.222;2022-12-07T04:59:43;16.50;;;8.15;;
44430;SDS011;30135;47.866;-4.222;2022-12-07T05:02:09;22.85;;;9.75;;
44430;SDS011;30135;47.866;-4.222;2022-12-07T05:04:35;20.65;;;8.30;;
44430;SDS011;30135;47.866;-4.222;2022-12-07T05:07:01;18.20;;;9.35;;
44430;SDS011;30135;47.866;-4.222;2022-12-07T05:09:27;22.10;;;9.25;;
44430;SDS011;30135;47.866;-4.222;2022-12-07T05:11:53;20.20;;;8.40;;
44430;SDS011;30135;47.866;-4.222;2022-12-07T05:14:19;19.90;;;8.80;;
44430;SDS011;30135;47.866;-4.222;2022-12-07T05:16:47;21.35;;;9.10;;
44430;SDS011;30135;47.866;-4.222;2022-12-07T05:19:16;24.63;;;9.55;;
44430;SDS011;30135;47.866;-4.222;2022-12-07T05:21:44;23.45;;;8.15;;
44430;SDS011;30135;47.866;-4.222;2022-12-07T05:24:11;18.77;;;8.10;;
44430;SDS011;30135;47.866;-4.222;2022-12-07T05:26:38;20.05;;;8.30;;
44430;SDS011;30135;47.866;-4.222;2022-12-07T05:29:05;18.88;;;8.02;;
44430;SDS011;30135;47.866;-4.222;2022-12-07T05:31:31;18.75;;;8.70;;
44430;SDS011;30135;47.866;-4.222;2022-12-07T05:33:57;20.73;;;7.95;;
44430;SDS011;30135;47.866;-4.222;2022-12-07T05:36:23;17.08;;;7.40;;
44430;SDS011;30135;47.866;-4.222;2022-12-07T05:38:49;14.70;;;6.18;;
44430;SDS011;30135;47.866;-4.222;2022-12-07T05:41:16;18.85;;;8.07;;
44430;SDS011;30135;47.866;-4.222;2022-12-07T05:44:19;18.50;;;8.05;;
44430;SDS011;30135;47.866;-4.222;2022-12-07T05:46:45;19.27;;;8.15;;
44430;SDS011;30135;47.866;-4.222;2022-12-07T05:49:11;18.52;;;8.70;;
44430;SDS011;30135;47.866;-4.222;2022-12-07T05:51:38;18.80;;;8.10;;
44430;SDS011;30135;47.866;-4.222;2022-12-07T05:54:04;22.42;;;7.90;;
44430;SDS011;30135;47.866;-4.222;2022-12-07T05:56:30;22.58;;;7.93;;
44430;SDS011;30135;47.866;-4.222;2022-12-07T05:58:56;19.13;;;7.75;;
44430;SDS011;30135;47.866;-4.222;2022-12-07T06:01:41;15.23;;;6.82;;
44430;SDS011;30135;47.866;-4.222;2022-12-07T06:04:07;21.63;;;7.32;;
44430;SDS011;30135;47.866;-4.222;2022-12-07T06:06:34;19.08;;;6.95;;
44430;SDS011;30135;47.866;-4.222;2022-12-07T06:09:00;13.70;;;6.93;;
44430;SDS011;30135;47.866;-4.222;2022-12-07T06:11:26;22.33;;;7.35;;
44430;SDS011;30135;47.866;-4.222;2022-12-07T06:14:10;17.88;;;7.82;;
44430;SDS011;30135;47.866;-4.222;2022-12-07T06:16:36;20.38;;;6.60;;
44430;SDS011;30135;47.866;-4.222;2022-12-07T06:19:02;19.02;;;7.78;;
44430;SDS011;30135;47.866;-4.222;2022-12-07T06:21:28;17.92;;;7.63;;
44430;SDS011;30135;47.866;-4.222;2022-12-07T06:23:54;18.73;;;7.25;;
44430;SDS011;30135;47.866;-4.222;2022-12-07T06:26:22;17.35;;;6.60;;
44430;SDS011;30135;47.866;-4.222;2022-12-07T06:28:48;21.05;;;6.85;;
44430;SDS011;30135;47.866;-4.222;2022-12-07T06:31:14;14.77;;;7.47;;
44430;SDS011;30135;47.866;-4.222;2022-12-07T06:33:40;17.20;;;7.75;;
44430;SDS011;30135;47.866;-4.222;2022-12-07T06:36:08;17.35;;;7.28;;
44430;SDS011;30135;47.866;-4.222;2022-12-07T06:38:34;15.98;;;6.97;;
44430;SDS011;30135;47.866;-4.222;2022-12-07T06:41:00;21.55;;;7.88;;
44430;SDS011;30135;47.866;-4.222;2022-12-07T06:43:27;14.25;;;6.80;;
44430;SDS011;30135;47.866;-4.222;2022-12-07T06:45:53;20.17;;;7.50;;
44430;SDS011;30135;47.866;-4.222;2022-12-07T06:48:19;14.95;;;7.63;;
44430;SDS011;30135;47.866;-4.222;2022-12-07T06:50:45;16.85;;;6.93;;
44430;SDS011;30135;47.866;-4.222;2022-12-07T06:53:12;16.73;;;6.65;;
44430;SDS011;30135;47.866;-4.222;2022-12-07T06:55:38;16.48;;;7.45;;
44430;SDS011;30135;47.866;-4.222;2022-12-07T06:58:05;14.32;;;6.03;;
44430;SDS011;30135;47.866;-4.222;2022-12-07T07:00:33;15.30;;;7.15;;
44430;SDS011;30135;47.866;-4.222;2022-12-07T07:03:00;14.52;;;6.50;;
44430;SDS011;30135;47.866;-4.222;2022-12-07T07:05:27;15.88;;;6.68;;
44430;SDS011;30135;47.866;-4.222;2022-12-07T07:07:55;13.15;;;5.40;;
44430;SDS011;30135;47.866;-4.222;2022-12-07T07:10:21;16.95;;;6.53;;
44430;SDS011;30135;47.866;-4.222;2022-12-07T07:12:47;23.33;;;7.05;;
44430;SDS011;30135;47.866;-4.222;2022-12-07T07:15:13;16.58;;;6.88;;
44430;SDS011;30135;47.866;-4.222;2022-12-07T07:17:39;23.05;;;6.25;;
44430;SDS011;30135;47.866;-4.222;2022-12-07T07:20:05;13.90;;;6.57;;
44430;SDS011;30135;47.866;-4.222;2022-12-07T07:22:31;16.00;;;7.68;;
44430;SDS011;30135;47.866;-4.222;2022-12-07T07:24:57;16.20;;;6.40;;
44430;SDS011;30135;47.866;-4.222;2022-12-07T07:27:23;12.07;;;6.15;;
44430;SDS011;30135;47.866;-4.222;2022-12-07T07:29:49;13.45;;;6.03;;
44430;SDS011;30135;47.866;-4.222;2022-12-07T07:32:15;16.42;;;6.00;;
44430;SDS011;30135;47.866;-4.222;2022-12-07T07:34:41;14.40;;;6.40;;
44430;SDS011;30135;47.866;-4.222;2022-12-07T07:37:07;19.80;;;7.10;;
44430;SDS011;30135;47.866;-4.222;2022-12-07T07:39:33;22.05;;;7.13;;
44430;SDS011;30135;47.866;-4.222;2022-12-07T07:41:59;17.45;;;7.43;;
44430;SDS011;30135;47.866;-4.222;2022-12-07T07:44:27;15.15;;;6.50;;
44430;SDS011;30135;47.866;-4.222;2022-12-07T07:46:55;14.48;;;6.68;;
44430;SDS011;30135;47.866;-4.222;2022-12-07T07:49:28;21.38;;;6.38;;
44430;SDS011;30135;47.866;-4.222;2022-12-07T07:51:54;19.13;;;6.10;;
44430;SDS011;30135;47.866;-4.222;2022-12-07T07:54:20;15.25;;;5.72;;
44430;SDS011;30135;47.866;-4.222;2022-12-07T07:56:46;23.70;;;7.05;;
44430;SDS011;30135;47.866;-4.222;2022-12-07T07:59:11;17.23;;;6.82;;
44430;SDS011;30135;47.866;-4.222;2022-12-07T08:01:38;15.40;;;6.95;;
44430;SDS011;30135;47.866;-4.222;2022-12-07T08:04:04;20.73;;;7.13;;
44430;SDS011;30135;47.866;-4.222;2022-12-07T08:06:30;23.30;;;7.57;;
44430;SDS011;30135;47.866;-4.222;2022-12-07T08:08:56;16.30;;;7.65;;
44430;SDS011;30135;47.866;-4.222;2022-12-07T08:11:23;17.27;;;7.60;;
44430;SDS011;30135;47.866;-4.222;2022-12-07T08:13:49;19.13;;;7.20;;
44430;SDS011;30135;47.866;-4.222;2022-12-07T08:16:15;14.98;;;7.32;;
44430;SDS011;30135;47.866;-4.222;2022-12-07T08:18:43;15.43;;;6.80;;
44430;SDS011;30135;47.866;-4.222;2022-12-07T08:21:11;17.83;;;7.57;;
44430;SDS011;30135;47.866;-4.222;2022-12-07T08:23:39;19.05;;;7.32;;
44430;SDS011;30135;47.866;-4.222;2022-12-07T08:26:07;16.63;;;5.95;;
44430;SDS011;30135;47.866;-4.222;2022-12-07T08:28:36;16.50;;;6.65;;
44430;SDS011;30135;47.866;-4.222;2022-12-07T08:31:03;15.68;;;6.28;;
44430;SDS011;30135;47.866;-4.222;2022-12-07T08:33:36;26.33;;;7.63;;
44430;SDS011;30135;47.866;-4.222;2022-12-07T08:36:10;15.95;;;8.05;;
44430;SDS011;30135;47.866;-4.222;2022-12-07T08:38:39;16.02;;;7.38;;
44430;SDS011;30135;47.866;-4.222;2022-12-07T08:41:06;15.00;;;6.50;;
44430;SDS011;30135;47.866;-4.222;2022-12-07T08:43:33;13.60;;;5.95;;
44430;SDS011;30135;47.866;-4.222;2022-12-07T08:48:42;15.90;;;6.22;;
44430;SDS011;30135;47.866;-4.222;2022-12-07T08:51:34;13.77;;;5.65;;
44430;SDS011;30135;47.866;-4.222;2022-12-07T08:54:01;13.65;;;6.75;;
44430;SDS011;30135;47.866;-4.222;2022-12-07T08:56:33;15.20;;;6.00;;
44430;SDS011;30135;47.866;-4.222;2022-12-07T08:58:59;13.88;;;6.22;;
44430;SDS011;30135;47.866;-4.222;2022-12-07T09:01:25;16.27;;;5.68;;
44430;SDS011;30135;47.866;-4.222;2022-12-07T09:03:52;18.88;;;6.00;;
44430;SDS011;30135;47.866;-4.222;2022-12-07T09:06:18;12.57;;;5.05;;
44430;SDS011;30135;47.866;-4.222;2022-12-07T09:08:46;12.68;;;5.45;;
44430;SDS011;30135;47.866;-4.222;2022-12-07T09:11:15;16.17;;;6.60;;
44430;SDS011;30135;47.866;-4.222;2022-12-07T09:13:41;12.77;;;5.32;;
44430;SDS011;30135;47.866;-4.222;2022-12-07T09:16:07;17.90;;;5.90;;
44430;SDS011;30135;47.866;-4.222;2022-12-07T09:18:33;14.07;;;4.97;;
44430;SDS011;30135;47.866;-4.222;2022-12-07T09:20:59;12.57;;;5.68;;
44430;SDS011;30135;47.866;-4.222;2022-12-07T09:23:25;13.57;;;5.00;;
44430;SDS011;30135;47.866;-4.222;2022-12-07T09:25:51;13.48;;;5.57;;
44430;SDS011;30135;47.866;-4.222;2022-12-07T09:28:19;12.18;;;5.72;;
44430;SDS011;30135;47.866;-4.222;2022-12-07T09:33:17;12.88;;;4.72;;
44430;SDS011;30135;47.866;-4.222;2022-12-07T09:35:46;23.30;;;5.85;;
44430;SDS011;30135;47.866;-4.222;2022-12-07T09:38:16;14.40;;;5.85;;
44430;SDS011;30135;47.866;-4.222;2022-12-07T09:40:49;9.13;;;4.75;;
44430;SDS011;30135;47.866;-4.222;2022-12-07T09:43:19;11.32;;;4.40;;
44430;SDS011;30135;47.866;-4.222;2022-12-07T09:46:12;12.98;;;5.40;;
44430;SDS011;30135;47.866;-4.222;2022-12-07T09:48:49;15.07;;;4.88;;
44430;SDS011;30135;47.866;-4.222;2022-12-07T09:51:17;17.30;;;5.47;;
44430;SDS011;30135;47.866;-4.222;2022-12-07T09:53:45;10.40;;;4.72;;
44430;SDS011;30135;47.866;-4.222;2022-12-07T09:56:15;11.93;;;3.83;;
44430;SDS011;30135;47.866;-4.222;2022-12-07T09:58:43;15.75;;;4.97;;
44430;SDS011;30135;47.866;-4.222;2022-12-07T10:01:12;13.93;;;5.47;;
44430;SDS011;30135;47.866;-4.222;2022-12-07T10:03:50;11.32;;;4.95;;
44430;SDS011;30135;47.866;-4.222;2022-12-07T10:06:24;12.15;;;4.60;;
44430;SDS011;30135;47.866;-4.222;2022-12-07T10:08:50;13.43;;;4.65;;
44430;SDS011;30135;47.866;-4.222;2022-12-07T10:11:16;11.77;;;4.95;;
44430;SDS011;30135;47.866;-4.222;2022-12-07T10:13:46;9.95;;;4.53;;
44430;SDS011;30135;47.866;-4.222;2022-12-07T10:16:49;8.25;;;4.35;;
44430;SDS011;30135;47.866;-4.222;2022-12-07T10:19:24;11.60;;;4.22;;
44430;SDS011;30135;47.866;-4.222;2022-12-07T10:22:10;11.18;;;4.80;;
44430;SDS011;30135;47.866;-4.222;2022-12-07T10:24:40;13.02;;;4.18;;
44430;SDS011;30135;47.866;-4.222;2022-12-07T10:29:57;12.80;;;4.80;;
44430;SDS011;30135;47.866;-4.222;2022-12-07T10:35:22;10.07;;;3.75;;
44430;SDS011;30135;47.866;-4.222;2022-12-07T10:37:48;13.48;;;4.85;;
44430;SDS011;30135;47.866;-4.222;2022-12-07T10:40:26;11.02;;;4.72;;
44430;SDS011;30135;47.866;-4.222;2022-12-07T10:43:05;11.82;;;5.22;;
44430;SDS011;30135;47.866;-4.222;2022-12-07T10:51:50;9.20;;;4.53;;
44430;SDS011;30135;47.866;-4.222;2022-12-07T11:00:39;14.52;;;6.70;;
44430;SDS011;30135;47.866;-4.222;2022-12-07T11:03:27;15.20;;;6.35;;
44430;SDS011;30135;47.866;-4.222;2022-12-07T11:06:16;11.52;;;5.07;;
44430;SDS011;30135;47.866;-4.222;2022-12-07T11:11:49;9.95;;;5.18;;
44430;SDS011;30135;47.866;-4.222;2022-12-07T11:17:17;8.32;;;3.95;;
44430;SDS011;30135;47.866;-4.222;2022-12-07T11:34:21;7.63;;;3.30;;
44430;SDS011;30135;47.866;-4.222;2022-12-07T11:37:25;14.15;;;3.70;;
44430;SDS011;30135;47.866;-4.222;2022-12-07T11:40:45;8.77;;;3.60;;
44430;SDS011;30135;47.866;-4.222;2022-12-07T11:43:11;7.55;;;3.17;;
44430;SDS011;30135;47.866;-4.222;2022-12-07T11:46:04;8.18;;;3.28;;
44430;SDS011;30135;47.866;-4.222;2022-12-07T11:48:38;5.95;;;2.75;;
44430;SDS011;30135;47.866;-4.222;2022-12-07T11:51:12;7.15;;;2.50;;
44430;SDS011;30135;47.866;-4.222;2022-12-07T11:53:46;7.13;;;2.72;;
44430;SDS011;30135;47.866;-4.222;2022-12-07T11:56:20;6.65;;;2.40;;
44430;SDS011;30135;47.866;-4.222;2022-12-07T12:01:42;7.72;;;1.95;;
44430;SDS011;30135;47.866;-4.222;2022-12-07T12:07:42;3.63;;;1.42;;
44430;SDS011;30135;47.866;-4.222;2022-12-07T12:10:22;3.47;;;1.35;;
44430;SDS011;30135;47.866;-4.222;2022-12-07T12:13:10;3.13;;;1.10;;
44430;SDS011;30135;47.866;-4.222;2022-12-07T12:16:13;2.42;;;1.30;;
44430;SDS011;30135;47.866;-4.222;2022-12-07T12:22:06;2.47;;;0.95;;
44430;SDS011;30135;47.866;-4.222;2022-12-07T12:24:43;3.17;;;1.17;;
44430;SDS011;30135;47.866;-4.222;2022-12-07T12:27:49;5.13;;;1.15;;
44430;SDS011;30135;47.866;-4.222;2022-12-07T12:30:32;2.28;;;1.35;;
44430;SDS011;30135;47.866;-4.222;2022-12-07T12:35:38;3.65;;;1.33;;
44430;SDS011;30135;47.866;-4.222;2022-12-07T12:38:24;2.58;;;0.90;;
44430;SDS011;30135;47.866;-4.222;2022-12-07T12:50:59;5.18;;;1.35;;
44430;SDS011;30135;47.866;-4.222;2022-12-07T12:57:08;1.75;;;0.90;;
44430;SDS011;30135;47.866;-4.222;2022-12-07T13:05:21;2.97;;;0.80;;
44430;SDS011;30135;47.866;-4.222;2022-12-07T13:20:58;2.47;;;1.15;;
44430;SDS011;30135;47.866;-4.222;2022-12-07T13:26:11;6.32;;;1.05;;
44430;SDS011;30135;47.866;-4.222;2022-12-07T13:28:48;4.50;;;1.30;;
44430;SDS011;30135;47.866;-4.222;2022-12-07T13:31:38;5.30;;;1.23;;
44430;SDS011;30135;47.866;-4.222;2022-12-07T13:39:55;1.73;;;1.10;;
44430;SDS011;30135;47.866;-4.222;2022-12-07T13:42:34;2.97;;;0.95;;
44430;SDS011;30135;47.866;-4.222;2022-12-07T13:48:21;7.60;;;1.10;;
44430;SDS011;30135;47.866;-4.222;2022-12-07T13:50:58;3.22;;;1.05;;
44430;SDS011;30135;47.866;-4.222;2022-12-07T13:53:27;2.83;;;0.98;;
44430;SDS011;30135;47.866;-4.222;2022-12-07T13:55:55;1.25;;;0.50;;
44430;SDS011;30135;47.866;-4.222;2022-12-07T13:58:30;1.75;;;0.60;;
44430;SDS011;30135;47.866;-4.222;2022-12-07T14:00:59;2.88;;;0.82;;
44430;SDS011;30135;47.866;-4.222;2022-12-07T14:03:35;4.63;;;1.00;;
44430;SDS011;30135;47.866;-4.222;2022-12-07T14:06:06;1.52;;;0.57;;
44430;SDS011;30135;47.866;-4.222;2022-12-07T14:08:40;2.20;;;0.73;;
44430;SDS011;30135;47.866;-4.222;2022-12-07T14:11:18;4.05;;;1.55;;
44430;SDS011;30135;47.866;-4.222;2022-12-07T14:18:55;4.95;;;2.38;;
44430;SDS011;30135;47.866;-4.222;2022-12-07T14:21:24;5.85;;;2.15;;
44430;SDS011;30135;47.866;-4.222;2022-12-07T14:26:47;9.00;;;2.45;;
44430;SDS011;30135;47.866;-4.222;2022-12-07T14:29:33;4.60;;;1.92;;
44430;SDS011;30135;47.866;-4.222;2022-12-07T14:32:20;7.32;;;2.13;;
44430;SDS011;30135;47.866;-4.222;2022-12-07T14:35:12;6.10;;;2.00;;
44430;SDS011;30135;47.866;-4.222;2022-12-07T14:37:41;6.57;;;3.00;;
44430;SDS011;30135;47.866;-4.222;2022-12-07T14:40:28;6.93;;;2.78;;
44430;SDS011;30135;47.866;-4.222;2022-12-07T14:42:56;5.47;;;2.70;;
44430;SDS011;30135;47.866;-4.222;2022-12-07T14:45:27;3.80;;;1.98;;
44430;SDS011;30135;47.866;-4.222;2022-12-07T14:47:53;6.85;;;2.20;;
44430;SDS011;30135;47.866;-4.222;2022-12-07T14:50:20;10.73;;;3.25;;
44430;SDS011;30135;47.866;-4.222;2022-12-07T14:52:51;6.45;;;2.83;;
44430;SDS011;30135;47.866;-4.222;2022-12-07T14:55:32;7.18;;;3.28;;
44430;SDS011;30135;47.866;-4.222;2022-12-07T14:57:58;6.97;;;2.50;;
44430;SDS011;30135;47.866;-4.222;2022-12-07T15:00:25;10.10;;;3.33;;
44430;SDS011;30135;47.866;-4.222;2022-12-07T15:02:53;8.00;;;2.58;;
44430;SDS011;30135;47.866;-4.222;2022-12-07T15:05:21;5.05;;;2.58;;
44430;SDS011;30135;47.866;-4.222;2022-12-07T15:07:47;6.57;;;2.80;;
44430;SDS011;30135;47.866;-4.222;2022-12-07T15:10:20;9.52;;;2.50;;
44430;SDS011;30135;47.866;-4.222;2022-12-07T15:12:54;5.82;;;3.05;;
44430;SDS011;30135;47.866;-4.222;2022-12-07T15:15:41;7.28;;;2.92;;
44430;SDS011;30135;47.866;-4.222;2022-12-07T15:18:07;6.88;;;3.08;;
44430;SDS011;30135;47.866;-4.222;2022-12-07T15:20:33;5.05;;;2.17;;
44430;SDS011;30135;47.866;-4.222;2022-12-07T15:22:59;8.00;;;2.20;;
44430;SDS011;30135;47.866;-4.222;2022-12-07T15:25:25;8.52;;;2.42;;
44430;SDS011;30135;47.866;-4.222;2022-12-07T15:27:54;8.55;;;2.50;;
44430;SDS011;30135;47.866;-4.222;2022-12-07T15:30:21;6.00;;;2.38;;
44430;SDS011;30135;47.866;-4.222;2022-12-07T15:32:49;6.05;;;2.33;;
44430;SDS011;30135;47.866;-4.222;2022-12-07T15:35:18;8.27;;;2.53;;
44430;SDS011;30135;47.866;-4.222;2022-12-07T15:37:46;5.85;;;2.70;;
44430;SDS011;30135;47.866;-4.222;2022-12-07T15:40:14;4.25;;;2.30;;
44430;SDS011;30135;47.866;-4.222;2022-12-07T15:42:40;6.10;;;2.45;;
44430;SDS011;30135;47.866;-4.222;2022-12-07T15:47:43;4.55;;;1.92;;
44430;SDS011;30135;47.866;-4.222;2022-12-07T15:50:13;4.70;;;2.30;;
44430;SDS011;30135;47.866;-4.222;2022-12-07T15:52:41;7.57;;;2.33;;
44430;SDS011;30135;47.866;-4.222;2022-12-07T15:55:09;6.13;;;2.72;;
44430;SDS011;30135;47.866;-4.222;2022-12-07T15:57:37;5.43;;;2.28;;
44430;SDS011;30135;47.866;-4.222;2022-12-07T16:00:05;6.72;;;2.90;;
44430;SDS011;30135;47.866;-4.222;2022-12-07T16:02:36;6.88;;;3.17;;
44430;SDS011;30135;47.866;-4.222;2022-12-07T16:05:02;10.18;;;2.83;;
44430;SDS011;30135;47.866;-4.222;2022-12-07T16:07:32;7.20;;;3.50;;
44430;SDS011;30135;47.866;-4.222;2022-12-07T16:10:01;8.25;;;4.05;;
44430;SDS011;30135;47.866;-4.222;2022-12-07T16:12:28;8.05;;;3.50;;
44430;SDS011;30135;47.866;-4.222;2022-12-07T16:14:57;10.32;;;4.20;;
44430;SDS011;30135;47.866;-4.222;2022-12-07T16:17:26;15.00;;;3.78;;
44430;SDS011;30135;47.866;-4.222;2022-12-07T16:19:54;10.65;;;4.28;;
44430;SDS011;30135;47.866;-4.222;2022-12-07T16:22:20;10.50;;;4.65;;
44430;SDS011;30135;47.866;-4.222;2022-12-07T16:24:46;15.85;;;4.72;;
44430;SDS011;30135;47.866;-4.222;2022-12-07T16:27:17;9.15;;;4.45;;
44430;SDS011;30135;47.866;-4.222;2022-12-07T16:29:49;12.05;;;3.78;;
44430;SDS011;30135;47.866;-4.222;2022-12-07T16:32:19;12.13;;;4.70;;
44430;SDS011;30135;47.866;-4.222;2022-12-07T16:34:48;10.47;;;4.37;;
44430;SDS011;30135;47.866;-4.222;2022-12-07T16:37:18;8.35;;;4.00;;
44430;SDS011;30135;47.866;-4.222;2022-12-07T16:39:47;8.50;;;4.50;;
44430;SDS011;30135;47.866;-4.222;2022-12-07T16:42:13;9.35;;;4.47;;
44430;SDS011;30135;47.866;-4.222;2022-12-07T16:44:40;12.88;;;5.03;;
44430;SDS011;30135;47.866;-4.222;2022-12-07T16:47:06;11.98;;;5.28;;
44430;SDS011;30135;47.866;-4.222;2022-12-07T16:49:39;12.27;;;4.85;;
44430;SDS011;30135;47.866;-4.222;2022-12-07T16:52:07;11.10;;;4.82;;
44430;SDS011;30135;47.866;-4.222;2022-12-07T16:54:33;12.40;;;5.10;;
44430;SDS011;30135;47.866;-4.222;2022-12-07T16:57:03;12.32;;;6.20;;
44430;SDS011;30135;47.866;-4.222;2022-12-07T16:59:30;13.13;;;6.13;;
44430;SDS011;30135;47.866;-4.222;2022-12-07T17:02:00;15.32;;;5.47;;
44430;SDS011;30135;47.866;-4.222;2022-12-07T17:04:26;19.65;;;6.93;;
44430;SDS011;30135;47.866;-4.222;2022-12-07T17:06:54;12.63;;;5.28;;
44430;SDS011;30135;47.866;-4.222;2022-12-07T17:09:21;13.73;;;5.88;;
44430;SDS011;30135;47.866;-4.222;2022-12-07T17:11:50;13.60;;;5.97;;
44430;SDS011;30135;47.866;-4.222;2022-12-07T17:17:23;13.45;;;4.88;;
44430;SDS011;30135;47.866;-4.222;2022-12-07T17:19:49;14.50;;;5.20;;
44430;SDS011;30135;47.866;-4.222;2022-12-07T17:22:18;16.15;;;5.60;;
44430;SDS011;30135;47.866;-4.222;2022-12-07T17:24:46;15.15;;;5.15;;
44430;SDS011;30135;47.866;-4.222;2022-12-07T17:27:13;15.40;;;5.80;;